createdAt,value
2019-05-17T00:01:54.531Z,9.60
2019-05-17T00:04:22.171Z,9.60
2019-05-17T00:06:49.847Z,9.60
2019-05-17T00:09:17.728Z,9.50
2019-05-17T00:11:47.314Z,9.50
2019-05-17T00:14:16.765Z,9.40
2019-05-17T00:16:44.822Z,9.40
2019-05-17T00:19:13.718Z,9.40
2019-05-17T00:21:41.396Z,9.40
2019-05-17T00:24:09.035Z,9.30
2019-05-17T00:26:39.320Z,9.30
2019-05-17T00:29:06.799Z,9.30
2019-05-17T00:31:36.813Z,9.30
2019-05-17T00:34:04.049Z,9.20
2019-05-17T00:36:31.723Z,9.20
2019-05-17T00:39:02.682Z,9.20
2019-05-17T00:41:30.354Z,9.10
2019-05-17T00:43:57.989Z,9.10
2019-05-17T00:46:26.682Z,9.00
2019-05-17T00:48:54.648Z,9.00
2019-05-17T00:51:22.399Z,9.00
2019-05-17T00:53:50.039Z,8.90
2019-05-17T00:56:17.715Z,8.90
2019-05-17T00:58:47.585Z,8.80
2019-05-17T01:01:16.476Z,8.80
2019-05-17T01:03:44.247Z,8.80
2019-05-17T01:06:12.159Z,8.70
2019-05-17T01:08:39.799Z,8.60
2019-05-17T01:11:07.472Z,8.60
2019-05-17T01:13:37.423Z,8.60
2019-05-17T01:16:07.118Z,8.60
2019-05-17T01:18:36.148Z,8.60
2019-05-17T01:21:06.259Z,8.60
2019-05-17T01:23:33.239Z,8.50
2019-05-17T01:26:00.933Z,8.50
2019-05-17T01:28:28.551Z,8.50
2019-05-17T01:30:56.989Z,8.50
2019-05-17T01:33:26.468Z,8.50
2019-05-17T01:35:54.359Z,8.50
2019-05-17T01:38:21.999Z,8.50
2019-05-17T01:40:49.671Z,8.50
2019-05-17T01:43:17.379Z,8.50
2019-05-17T01:45:45.058Z,8.60
2019-05-17T01:48:12.763Z,8.60
2019-05-17T01:50:40.434Z,8.60
2019-05-17T01:53:08.070Z,8.60
2019-05-17T01:55:37.556Z,8.60
2019-05-17T01:58:07.419Z,8.60
2019-05-17T02:00:37.290Z,8.60
2019-05-17T02:03:03.956Z,8.70
2019-05-17T02:05:31.595Z,8.70
2019-05-17T02:07:59.270Z,8.70
2019-05-17T02:10:27.188Z,8.70
2019-05-17T02:12:57.051Z,8.70
2019-05-17T02:15:26.645Z,8.70
2019-05-17T02:17:53.811Z,8.70
2019-05-17T02:20:21.622Z,8.70
2019-05-17T02:22:49.298Z,8.70
2019-05-17T02:25:17.210Z,8.60
2019-05-17T02:27:44.936Z,8.60
2019-05-17T02:30:14.295Z,8.60
2019-05-17T02:32:43.296Z,8.60
2019-05-17T02:35:14.272Z,8.60
2019-05-17T02:37:43.381Z,8.70
2019-05-17T02:40:14.444Z,8.70
2019-05-17T02:42:42.941Z,8.70
2019-05-17T02:45:13.360Z,8.70
2019-05-17T02:47:43.347Z,8.70
2019-05-17T02:50:12.623Z,8.70
2019-05-17T02:52:38.808Z,8.70
2019-05-17T02:55:06.595Z,8.70
2019-05-17T02:57:34.838Z,8.80
2019-05-17T03:00:04.323Z,8.70
2019-05-17T03:02:34.121Z,8.70
2019-05-17T03:05:04.067Z,8.70
2019-05-17T03:07:32.620Z,8.70
2019-05-17T03:10:13.876Z,8.70
2019-05-17T03:12:32.672Z,8.70
2019-05-17T03:14:58.944Z,8.70
2019-05-17T03:17:26.617Z,8.70
2019-05-17T03:19:54.259Z,8.70
2019-05-17T03:22:23.100Z,8.70
2019-05-17T03:24:53.378Z,8.70
2019-05-17T03:27:23.304Z,8.70
2019-05-17T03:29:53.523Z,8.70
2019-05-17T03:32:19.460Z,8.70
2019-05-17T03:34:47.248Z,8.70
2019-05-17T03:37:16.327Z,8.60
2019-05-17T03:39:44.112Z,8.60
2019-05-17T03:42:13.171Z,8.60
2019-05-17T03:44:43.735Z,8.60
2019-05-17T03:47:13.109Z,8.50
2019-05-17T03:49:40.120Z,8.50
2019-05-17T03:52:09.378Z,8.40
2019-05-17T03:54:37.071Z,8.40
2019-05-17T03:57:04.751Z,8.30
2019-05-17T03:59:33.394Z,8.30
2019-05-17T04:02:03.244Z,8.30
2019-05-17T04:04:33.201Z,8.20
2019-05-17T04:07:03.156Z,8.20
2019-05-17T04:09:32.641Z,8.10
2019-05-17T04:11:58.956Z,8.20
2019-05-17T04:14:26.936Z,8.10
2019-05-17T04:16:54.583Z,8.10
2019-05-17T04:19:22.956Z,8.20
2019-05-17T04:21:53.733Z,8.20
2019-05-17T04:24:23.077Z,8.20
2019-05-17T04:26:52.217Z,8.20
2019-05-17T04:29:22.395Z,8.20
2019-05-17T04:31:48.459Z,8.20
2019-05-17T04:34:16.127Z,8.20
2019-05-17T04:36:43.767Z,8.30
2019-05-17T04:39:13.376Z,8.30
2019-05-17T04:41:46.960Z,8.30
2019-05-17T04:44:12.812Z,8.40
2019-05-17T04:46:42.930Z,8.40
2019-05-17T04:49:09.011Z,8.40
2019-05-17T04:51:36.652Z,8.50
2019-05-17T04:54:04.332Z,8.50
2019-05-17T04:56:33.427Z,8.50
2019-05-17T04:59:03.281Z,8.60
2019-05-17T05:01:33.017Z,8.60
2019-05-17T05:04:03.425Z,8.60
2019-05-17T05:06:32.824Z,8.70
2019-05-17T05:09:02.640Z,8.70
2019-05-17T05:11:32.562Z,8.80
2019-05-17T05:13:58.703Z,8.80
2019-05-17T05:16:26.339Z,8.80
2019-05-17T05:18:54.011Z,8.90
2019-05-17T05:21:23.103Z,8.90
2019-05-17T05:23:51.817Z,9.00
2019-05-17T05:26:22.152Z,9.00
2019-05-17T05:28:49.793Z,9.10
2019-05-17T05:31:17.507Z,9.10
2019-05-17T05:33:45.190Z,9.20
2019-05-17T05:36:12.835Z,9.20
2019-05-17T05:38:42.239Z,9.20
2019-05-17T05:41:12.079Z,9.30
2019-05-17T05:43:41.827Z,9.30
2019-05-17T05:46:08.858Z,9.40
2019-05-17T05:48:36.535Z,9.40
2019-05-17T05:51:05.167Z,9.50
2019-05-17T05:53:33.446Z,9.60
2019-05-17T05:56:03.315Z,9.70
2019-05-17T05:58:32.205Z,9.80
2019-05-17T06:01:02.188Z,9.80
2019-05-17T06:03:29.250Z,9.90
2019-05-17T06:05:56.959Z,9.90
2019-05-17T06:08:24.648Z,10.00
2019-05-17T06:10:53.156Z,10.10
2019-05-17T06:13:21.851Z,10.10
2019-05-17T06:15:51.700Z,10.20
2019-05-17T06:18:19.307Z,10.20
2019-05-17T06:20:46.946Z,10.30
2019-05-17T06:23:14.583Z,10.40
2019-05-17T06:25:43.608Z,10.50
2019-05-17T06:28:11.679Z,10.60
2019-05-17T06:30:39.546Z,10.70
2019-05-17T06:33:07.543Z,10.70
2019-05-17T06:35:35.238Z,10.80
2019-05-17T06:38:02.874Z,10.90
2019-05-17T06:40:32.291Z,10.90
2019-05-17T06:43:03.994Z,11.00
2019-05-17T06:45:29.615Z,11.10
2019-05-17T06:47:57.330Z,11.10
2019-05-17T06:50:25.010Z,11.20
2019-05-17T06:52:53.267Z,11.30
2019-05-17T06:55:21.168Z,11.40
2019-05-17T06:57:48.812Z,11.40
2019-05-17T07:00:20.587Z,11.50
2019-05-17T07:02:46.655Z,11.50
2019-05-17T07:05:16.268Z,11.50
2019-05-17T07:07:43.910Z,11.60
2019-05-17T07:10:11.855Z,11.60
2019-05-17T07:12:54.428Z,11.80
2019-05-17T07:15:10.762Z,11.80
2019-05-17T07:17:39.993Z,11.90
2019-05-17T07:20:10.378Z,12.00
2019-05-17T07:22:40.460Z,12.00
2019-05-17T07:25:07.187Z,12.10
2019-05-17T07:27:41.261Z,12.10
2019-05-17T07:30:09.946Z,12.20
2019-05-17T07:32:37.513Z,12.20
2019-05-17T07:35:05.479Z,12.20
2019-05-17T07:37:33.122Z,12.20
2019-05-17T07:40:04.748Z,12.30
2019-05-17T07:42:30.476Z,12.40
2019-05-17T07:45:00.523Z,12.50
2019-05-17T07:47:29.465Z,12.50
2019-05-17T07:49:57.350Z,12.60
2019-05-17T07:52:25.243Z,12.60
2019-05-17T07:54:52.920Z,12.60
2019-05-17T07:57:20.748Z,12.60
2019-05-17T07:59:50.724Z,12.70
2019-05-17T08:02:19.809Z,12.70
2019-05-17T08:04:49.928Z,12.80
2019-05-17T08:07:16.685Z,12.90
2019-05-17T08:09:44.368Z,13.00
2019-05-17T08:12:12.332Z,13.00
2019-05-17T08:14:40.176Z,13.00
2019-05-17T08:17:10.164Z,13.10
2019-05-17T08:19:40.118Z,13.20
2019-05-17T08:22:07.046Z,13.20
2019-05-17T08:24:36.445Z,13.30
2019-05-17T08:27:04.083Z,13.30
2019-05-17T08:29:31.730Z,13.40
2019-05-17T08:32:00.385Z,13.40
2019-05-17T08:34:29.322Z,13.50
2019-05-17T08:36:57.163Z,13.50
2019-05-17T08:39:24.794Z,13.50
2019-05-17T08:41:52.466Z,13.60
2019-05-17T08:44:20.107Z,13.70
2019-05-17T08:46:50.010Z,13.70
2019-05-17T08:49:17.157Z,13.70
2019-05-17T08:51:44.835Z,13.70
2019-05-17T08:54:12.474Z,13.80
2019-05-17T08:56:40.397Z,13.90
2019-05-17T08:59:09.631Z,13.90
2019-05-17T09:01:39.238Z,14.00
2019-05-17T09:04:09.200Z,14.00
2019-05-17T09:06:36.723Z,14.10
2019-05-17T09:09:05.850Z,14.20
2019-05-17T09:11:33.594Z,14.30
2019-05-17T09:14:02.260Z,14.30
2019-05-17T09:16:30.839Z,14.30
2019-05-17T09:19:00.500Z,14.30
2019-05-17T09:21:31.408Z,14.40
2019-05-17T09:23:59.748Z,14.40
2019-05-17T09:26:29.377Z,14.40
2019-05-17T09:29:00.870Z,14.50
2019-05-17T09:31:40.257Z,14.50
2019-05-17T09:34:09.548Z,14.60
2019-05-17T09:36:37.411Z,14.60
2019-05-17T09:39:06.399Z,14.60
2019-05-17T09:41:34.367Z,14.60
2019-05-17T09:44:11.633Z,14.70
2019-05-17T09:46:32.947Z,14.70
2019-05-17T09:49:01.324Z,14.80
2019-05-17T09:51:30.352Z,14.90
2019-05-17T09:54:00.120Z,14.90
2019-05-17T09:56:30.019Z,14.90
2019-05-17T09:58:57.503Z,14.90
2019-05-17T10:01:25.493Z,14.90
2019-05-17T10:03:53.171Z,14.90
2019-05-17T10:06:20.823Z,14.90
2019-05-17T10:08:49.522Z,14.90
2019-05-17T10:11:17.327Z,15.00
2019-05-17T10:13:44.996Z,15.00
2019-05-17T10:16:12.902Z,15.10
2019-05-17T10:18:40.583Z,15.10
2019-05-17T10:21:10.490Z,15.10
2019-05-17T10:23:40.468Z,15.20
2019-05-17T10:26:07.323Z,15.20
2019-05-17T10:28:34.987Z,15.40
2019-05-17T10:31:02.641Z,15.40
2019-05-17T10:33:30.315Z,15.40
2019-05-17T10:36:00.278Z,15.50
2019-05-17T10:38:27.355Z,15.50
2019-05-17T10:40:55.000Z,15.50
2019-05-17T10:43:22.675Z,15.60
2019-05-17T10:45:50.318Z,15.70
2019-05-17T10:48:21.013Z,15.70
2019-05-17T10:50:49.523Z,15.80
2019-05-17T10:53:16.771Z,15.90
2019-05-17T10:55:44.422Z,15.90
2019-05-17T10:58:12.388Z,16.00
2019-05-17T11:00:41.432Z,16.00
2019-05-17T11:03:09.993Z,16.00
2019-05-17T11:05:40.315Z,16.10
2019-05-17T11:08:07.307Z,16.20
2019-05-17T11:10:34.943Z,16.20
2019-05-17T11:13:02.636Z,16.20
2019-05-17T11:15:30.278Z,16.20
2019-05-17T11:17:57.963Z,16.30
2019-05-17T11:20:25.667Z,16.30
2019-05-17T11:22:53.354Z,16.40
2019-05-17T11:25:20.997Z,16.40
2019-05-17T11:27:48.682Z,16.40
2019-05-17T11:30:18.192Z,16.50
2019-05-17T11:32:49.115Z,16.60
2019-05-17T11:35:16.990Z,16.70
2019-05-17T11:37:54.366Z,16.70
2019-05-17T11:40:27.103Z,16.80
2019-05-17T11:42:58.382Z,16.90
2019-05-17T11:45:32.667Z,16.90
2019-05-17T11:47:59.640Z,16.90
2019-05-17T11:50:27.353Z,16.90
2019-05-17T11:52:54.994Z,17.00
2019-05-17T11:55:22.680Z,17.10
2019-05-17T11:57:50.323Z,17.10
2019-05-17T12:00:18.846Z,17.20
2019-05-17T12:02:46.840Z,17.20
2019-05-17T12:05:14.892Z,17.20
2019-05-17T12:07:42.538Z,17.30
2019-05-17T12:10:10.397Z,17.40
2019-05-17T12:12:38.032Z,17.50
2019-05-17T12:15:06.683Z,17.60
2019-05-17T12:17:35.401Z,17.60
2019-05-17T12:20:05.743Z,17.60
2019-05-17T12:22:33.456Z,17.50
2019-05-17T12:25:02.330Z,17.60
2019-05-17T12:27:30.029Z,17.60
2019-05-17T12:29:58.848Z,17.60
2019-05-17T12:32:26.496Z,17.70
2019-05-17T12:34:55.296Z,17.80
2019-05-17T12:37:22.940Z,17.80
2019-05-17T12:39:52.116Z,17.90
2019-05-17T12:42:19.757Z,18.00
2019-05-17T12:44:48.607Z,18.10
2019-05-17T12:47:16.405Z,18.10
2019-05-17T12:49:45.566Z,18.10
2019-05-17T12:52:13.206Z,18.10
2019-05-17T12:54:40.851Z,18.10
2019-05-17T12:57:09.654Z,18.10
2019-05-17T12:59:37.347Z,18.20
2019-05-17T13:02:06.260Z,18.40
2019-05-17T13:04:34.196Z,18.40
2019-05-17T13:07:03.706Z,18.50
2019-05-17T13:09:31.344Z,18.70
2019-05-17T13:12:00.171Z,18.60
2019-05-17T13:14:27.831Z,18.60
2019-05-17T13:16:57.851Z,18.60
2019-05-17T13:19:25.597Z,18.70
2019-05-17T13:21:54.100Z,18.70
2019-05-17T13:24:21.742Z,18.70
2019-05-17T13:26:50.544Z,18.70
2019-05-17T13:29:18.190Z,18.80
2019-05-17T13:31:47.007Z,18.80
2019-05-17T13:34:14.639Z,18.70
2019-05-17T13:36:44.859Z,18.70
2019-05-17T13:39:12.502Z,18.70
2019-05-17T13:41:41.023Z,18.70
2019-05-17T13:44:08.675Z,18.80
2019-05-17T13:46:39.393Z,18.80
2019-05-17T13:49:07.039Z,18.90
2019-05-17T13:51:35.984Z,18.90
2019-05-17T13:54:03.630Z,19.00
2019-05-17T13:56:32.424Z,19.00
2019-05-17T13:59:00.357Z,19.00
2019-05-17T14:01:29.461Z,19.10
2019-05-17T14:03:57.164Z,19.20
2019-05-17T14:06:26.056Z,19.20
2019-05-17T14:08:53.697Z,19.20
2019-05-17T14:11:23.499Z,19.20
2019-05-17T14:13:51.451Z,19.20
2019-05-17T14:16:20.988Z,19.20
2019-05-17T14:18:49.672Z,19.30
2019-05-17T14:21:18.480Z,19.40
2019-05-17T14:23:46.117Z,19.30
2019-05-17T14:26:14.828Z,19.40
2019-05-17T14:28:42.466Z,19.50
2019-05-17T14:31:11.270Z,19.50
2019-05-17T14:33:38.923Z,19.70
2019-05-17T14:36:07.803Z,19.70
2019-05-17T14:38:35.765Z,19.60
2019-05-17T14:41:07.307Z,19.60
2019-05-17T14:43:33.888Z,19.60
2019-05-17T14:46:02.672Z,19.60
2019-05-17T14:48:30.323Z,19.50
2019-05-17T14:50:58.729Z,19.50
2019-05-17T14:53:26.654Z,19.60
2019-05-17T14:55:55.389Z,19.60
2019-05-17T14:58:23.105Z,19.60
2019-05-17T15:00:50.751Z,19.60
2019-05-17T15:03:19.586Z,19.60
2019-05-17T15:05:47.233Z,19.60
2019-05-17T15:08:15.737Z,19.60
2019-05-17T15:10:43.674Z,19.50
2019-05-17T15:13:12.628Z,19.60
2019-05-17T15:15:49.078Z,19.60
2019-05-17T15:18:18.879Z,19.60
2019-05-17T15:20:48.104Z,19.70
2019-05-17T15:23:17.149Z,19.70
2019-05-17T15:25:44.809Z,19.80
2019-05-17T15:28:13.564Z,19.90
2019-05-17T15:30:41.205Z,20.00
2019-05-17T15:33:10.180Z,20.00
2019-05-17T15:35:38.934Z,20.10
2019-05-17T15:38:10.954Z,20.20
2019-05-17T15:40:37.153Z,20.20
2019-05-17T15:43:05.975Z,20.30
2019-05-17T15:45:33.680Z,20.20
2019-05-17T15:48:03.201Z,20.10
2019-05-17T15:50:30.850Z,20.10
2019-05-17T15:53:00.561Z,20.00
2019-05-17T15:55:28.199Z,19.90
2019-05-17T15:57:57.746Z,19.80
2019-05-17T16:00:25.392Z,19.80
2019-05-17T16:02:54.211Z,19.90
2019-05-17T16:05:21.856Z,20.10
2019-05-17T16:07:50.903Z,20.10
2019-05-17T16:10:18.787Z,20.10
2019-05-17T16:13:01.609Z,20.00
2019-05-17T16:15:17.016Z,20.10
2019-05-17T16:17:47.962Z,20.00
2019-05-17T16:20:17.159Z,19.90
2019-05-17T16:22:46.123Z,20.00
2019-05-17T16:25:14.079Z,19.90
2019-05-17T16:27:42.868Z,19.90
2019-05-17T16:30:10.514Z,19.80
2019-05-17T16:32:39.391Z,19.70
2019-05-17T16:35:07.091Z,19.60
2019-05-17T16:37:35.623Z,19.60
2019-05-17T16:40:04.246Z,19.50
2019-05-17T16:42:33.195Z,19.40
2019-05-17T16:45:00.839Z,19.30
2019-05-17T16:47:29.345Z,19.40
2019-05-17T16:49:57.267Z,19.40
2019-05-17T16:52:25.579Z,19.40
2019-05-17T16:54:54.847Z,19.40
2019-05-17T16:57:22.487Z,19.30
2019-05-17T16:59:51.338Z,19.10
2019-05-17T17:02:19.266Z,19.00
2019-05-17T17:04:48.404Z,18.90
2019-05-17T17:07:16.055Z,18.80
2019-05-17T17:09:44.864Z,18.70
2019-05-17T17:12:12.782Z,18.70
2019-05-17T17:14:40.459Z,18.60
2019-05-17T17:17:11.472Z,18.60
2019-05-17T17:19:37.537Z,18.50
2019-05-17T17:22:05.192Z,18.50
2019-05-17T17:24:32.875Z,18.40
2019-05-17T17:27:00.522Z,18.40
2019-05-17T17:29:28.475Z,18.50
2019-05-17T17:31:56.116Z,18.50
2019-05-17T17:34:23.803Z,18.60
2019-05-17T17:36:51.447Z,18.80
2019-05-17T17:39:19.156Z,18.90
2019-05-17T17:41:47.100Z,19.10
2019-05-17T17:44:14.729Z,19.20
2019-05-17T17:46:42.403Z,19.10
2019-05-17T17:49:10.054Z,18.80
2019-05-17T17:51:37.731Z,18.60
2019-05-17T17:54:05.439Z,18.70
2019-05-17T17:56:33.115Z,18.70
2019-05-17T17:59:00.757Z,18.70
2019-05-17T18:01:28.445Z,18.80
2019-05-17T18:03:56.087Z,18.70
2019-05-17T18:06:23.775Z,18.60
2019-05-17T18:08:51.423Z,18.50
2019-05-17T18:11:19.099Z,18.20
2019-05-17T18:13:46.744Z,18.10
2019-05-17T18:16:14.433Z,17.90
2019-05-17T18:18:42.067Z,17.80
2019-05-17T18:21:09.735Z,17.70
2019-05-17T18:23:37.376Z,17.60
2019-05-17T18:26:05.059Z,17.50
2019-05-17T18:28:32.708Z,17.40
2019-05-17T18:31:00.405Z,17.30
2019-05-17T18:33:28.044Z,17.20
2019-05-17T18:35:55.730Z,17.10
2019-05-17T18:38:25.476Z,17.00
2019-05-17T18:40:53.171Z,17.00
2019-05-17T18:43:20.814Z,16.90
2019-05-17T18:45:48.771Z,16.80
2019-05-17T18:48:16.419Z,16.70
2019-05-17T18:50:44.108Z,16.70
2019-05-17T18:53:16.743Z,16.60
2019-05-17T18:55:41.152Z,16.50
2019-05-17T18:58:08.880Z,16.40
2019-05-17T19:00:36.639Z,16.40
2019-05-17T19:03:04.686Z,16.30
2019-05-17T19:05:32.447Z,16.30
2019-05-17T19:08:00.111Z,16.20
2019-05-17T19:10:27.852Z,16.10
2019-05-17T19:12:55.497Z,16.00
2019-05-17T19:15:23.207Z,15.90
2019-05-17T19:17:50.885Z,15.90
2019-05-17T19:20:18.955Z,15.80
2019-05-17T19:22:46.783Z,15.70
2019-05-17T19:25:14.583Z,15.60
2019-05-17T19:27:42.261Z,15.50
2019-05-17T19:30:10.592Z,15.50
2019-05-17T19:32:38.275Z,15.40
2019-05-17T19:35:06.295Z,15.30
2019-05-17T19:37:34.301Z,15.20
2019-05-17T19:40:01.959Z,15.20
2019-05-17T19:42:29.702Z,15.10
2019-05-17T19:44:59.454Z,15.10
2019-05-17T19:47:27.087Z,15.10
2019-05-17T19:49:54.724Z,15.00
2019-05-17T19:52:22.452Z,14.90
2019-05-17T19:54:50.147Z,14.90
2019-05-17T19:57:17.834Z,14.80
2019-05-17T19:59:45.531Z,14.70
2019-05-17T20:02:13.216Z,14.60
2019-05-17T20:04:40.848Z,14.60
2019-05-17T20:07:08.531Z,14.60
2019-05-17T20:09:36.192Z,14.50
2019-05-17T20:12:03.943Z,14.50
2019-05-17T20:14:31.578Z,14.50
2019-05-17T20:16:59.271Z,14.50
2019-05-17T20:19:26.911Z,14.50
2019-05-17T20:21:54.591Z,14.50
2019-05-17T20:24:22.544Z,14.40
2019-05-17T20:26:50.228Z,14.40
2019-05-17T20:29:17.875Z,14.30
2019-05-17T20:31:45.555Z,14.20
2019-05-17T20:34:13.195Z,14.10
2019-05-17T20:36:41.168Z,14.10
2019-05-17T20:39:09.747Z,14.00
2019-05-17T20:41:37.442Z,13.90
2019-05-17T20:44:05.399Z,13.80
2019-05-17T20:46:33.456Z,13.80
2019-05-17T20:49:01.120Z,13.70
2019-05-17T20:51:28.814Z,13.60
2019-05-17T20:53:56.456Z,13.40
2019-05-17T20:56:32.328Z,13.30
2019-05-17T20:58:53.511Z,13.20
2019-05-17T21:01:21.195Z,13.10
2019-05-17T21:03:48.835Z,13.00
2019-05-17T21:06:16.816Z,13.00
2019-05-17T21:08:46.285Z,13.00
2019-05-17T21:11:13.864Z,13.00
2019-05-17T21:13:41.555Z,13.00
2019-05-17T21:16:09.202Z,12.90
2019-05-17T21:18:36.966Z,12.80
2019-05-17T21:21:04.683Z,12.80
2019-05-17T21:23:32.371Z,12.70
2019-05-17T21:26:00.016Z,12.70
2019-05-17T21:28:27.691Z,12.60
2019-05-17T21:30:55.391Z,12.50
2019-05-17T21:33:23.082Z,12.50
2019-05-17T21:35:50.726Z,12.40
2019-05-17T21:38:18.422Z,12.30
2019-05-17T21:40:46.064Z,12.30
2019-05-17T21:43:13.815Z,12.30
2019-05-17T21:45:41.707Z,12.20
2019-05-17T21:48:09.389Z,12.20
2019-05-17T21:50:37.018Z,12.10
2019-05-17T21:53:04.711Z,12.10
2019-05-17T21:55:32.351Z,12.00
2019-05-17T21:58:00.033Z,11.90
2019-05-17T22:00:48.315Z,11.80
2019-05-17T22:03:16.013Z,11.80
2019-05-17T22:05:43.727Z,11.70
2019-05-17T22:08:11.824Z,11.60
2019-05-17T22:10:39.790Z,11.50
2019-05-17T22:13:07.527Z,11.50
2019-05-17T22:15:35.166Z,11.50
2019-05-17T22:18:02.895Z,11.40
2019-05-17T22:20:30.603Z,11.40
2019-05-17T22:22:58.299Z,11.30
2019-05-17T22:25:25.931Z,11.30
2019-05-17T22:27:53.623Z,11.30
2019-05-17T22:30:21.275Z,11.30
2019-05-17T22:32:48.963Z,11.20
2019-05-17T22:35:16.739Z,11.20
2019-05-17T22:37:44.497Z,11.20
2019-05-17T22:40:12.274Z,11.10
2019-05-17T22:42:40.670Z,11.10
2019-05-17T22:45:08.498Z,11.00
2019-05-17T22:47:36.176Z,11.00
2019-05-17T22:50:04.787Z,10.90
2019-05-17T22:52:32.480Z,10.90
2019-05-17T22:55:00.233Z,11.00
2019-05-17T22:57:27.948Z,10.90
2019-05-17T22:59:55.631Z,10.90
2019-05-17T23:02:23.273Z,10.90
2019-05-17T23:04:50.999Z,10.90
2019-05-17T23:07:18.691Z,10.80
2019-05-17T23:09:46.651Z,10.80
2019-05-17T23:12:14.304Z,10.70
2019-05-17T23:14:41.978Z,10.70
2019-05-17T23:17:09.628Z,10.60
2019-05-17T23:19:37.311Z,10.50
2019-05-17T23:22:05.196Z,10.50
2019-05-17T23:24:33.143Z,10.50
2019-05-17T23:27:00.788Z,10.40
2019-05-17T23:29:28.471Z,10.40
2019-05-17T23:31:56.440Z,10.40
2019-05-17T23:34:24.123Z,10.40
2019-05-17T23:36:51.764Z,10.40
2019-05-17T23:39:19.439Z,10.40
2019-05-17T23:41:47.396Z,10.40
2019-05-17T23:44:15.090Z,10.40
2019-05-17T23:46:42.736Z,10.40
2019-05-17T23:49:10.407Z,10.50
2019-05-17T23:51:38.120Z,10.60
2019-05-17T23:54:05.791Z,10.60
2019-05-17T23:56:33.439Z,10.60
2019-05-17T23:59:01.121Z,10.60
